Anjeliersgracht — PCGQ — position and weather

sailwx.info

Track history (hours):
 
Tides and Currents Weather Stations Pressure Air Temp Water Temp Dewpoint Dewpoint Depression Visibility Wind Speed Wind Dir Waves Ship Positions

Anjeliersgracht

Last reported at 2016-Feb-02 08:28 UTC. Time now 2016-Feb-12 03:44 UTC.
Position N 37°27' E 025°57'.
Warning: this ship's position is 9 days out of date.

Length 130 m; beam 19 m; draft 9 m.

Type: Cargo ship. MMSI: 244716000.

Date/timePositionNaut miles runAvg speedWind from/ knotsBaromVisibWave heightAir tempDewpointWater temp
2016-Feb-02 08:28N 37°27' E 025°57'1212.8
2016-Feb-02 07:33N 37°38' E 025°53'14413.0
2016-Feb-01 20:25N 40°01' E 026°09'  
2016-Jan-30 07:33N 40°00' E 026°09'49210.9
2016-Jan-28 10:16N 37°48' E 016°00'2413.4
2016-Jan-28 08:26N 38°02' E 015°35'2211.7
2016-Jan-28 06:31N 38°24' E 015°33'1413.6
2016-Jan-28 05:32N 38°34' E 015°21'11113.7
2016-Jan-27 21:24N 39°48' E 013°35'27514.6
2016-Jan-27 02:31N 43°11' E 009°26'1414.8
2016-Jan-27 01:34N 43°23' E 009°17'1514.8
2016-Jan-27 00:33N 43°36' E 009°06'1514.7
2016-Jan-26 23:33N 43°48' E 008°55'1514.7
2016-Jan-26 22:33N 44°01' E 008°45'1414.3
2016-Jan-26 21:33N 44°14' E 008°35'6 5.5
2016-Jan-26 20:25N 44°19' E 008°30'0 0.0
2016-Jan-26 17:17N 44°19' E 008°30'0 0.0
2016-Jan-26 14:19N 44°19' E 008°30'0 0.0
2016-Jan-26 09:16N 44°19' E 008°30'0 0.0
2016-Jan-26 07:22N 44°19' E 008°30'0 0.0
2016-Jan-26 06:25N 44°19' E 008°30'0 0.0
2016-Jan-26 05:31N 44°19' E 008°30'0 0.0
2016-Jan-26 04:25N 44°19' E 008°30'0 0.0
2016-Jan-26 03:25N 44°19' E 008°30'0 0.0
2016-Jan-26 02:25N 44°19' E 008°30'0 0.0
2016-Jan-26 01:25N 44°19' E 008°30'0 0.0
2016-Jan-26 00:13N 44°19' E 008°30'0 0.0
2016-Jan-25 23:25N 44°19' E 008°30'0 0.0
2016-Jan-25 21:25N 44°19' E 008°30'0 0.0
2016-Jan-25 19:25N 44°19' E 008°30'0 0.0
2016-Jan-25 18:33N 44°19' E 008°30'7 6.7
2016-Jan-25 17:33N 44°19' E 008°39'1313.3
2016-Jan-25 16:33N 44°21' E 008°58'5 4.3
2016-Jan-25 15:28N 44°24' E 008°53'0 0.0
2016-Jan-25 14:28N 44°24' E 008°53'0 0.0
2016-Jan-25 13:28N 44°24' E 008°53'0 0.0
2016-Jan-25 12:31N 44°24' E 008°53'0 0.0
2016-Jan-25 11:31N 44°24' E 008°53'0 0.0
2016-Jan-25 10:31N 44°24' E 008°53'0 0.0
2016-Jan-25 09:31N 44°24' E 008°53'0 0.0
2016-Jan-25 08:31N 44°24' E 008°53'0 0.0
2016-Jan-25 07:28N 44°24' E 008°53'0 0.0
2016-Jan-25 06:31N 44°24' E 008°53'0 0.0
2016-Jan-25 05:31N 44°24' E 008°53'0 0.0
2016-Jan-25 04:31N 44°24' E 008°53'0 0.0
2016-Jan-25 03:31N 44°24' E 008°53'0 0.0
2016-Jan-25 02:34N 44°24' E 008°53'0 0.0
2016-Jan-25 01:33N 44°24' E 008°53'0 0.0
2016-Jan-25 00:33N 44°24' E 008°53'0 0.0
2016-Jan-24 23:33N 44°24' E 008°53'0 0.0
2016-Jan-24 22:33N 44°24' E 008°53'0 0.0
2016-Jan-24 21:33N 44°24' E 008°53'0 0.0
2016-Jan-24 20:33N 44°24' E 008°53'0 0.0
2016-Jan-24 19:33N 44°24' E 008°53'0 0.0
2016-Jan-24 18:33N 44°24' E 008°53'0 0.0
2016-Jan-24 17:33N 44°24' E 008°53'0 0.0
2016-Jan-24 16:24N 44°24' E 008°53'0 0.5
2016-Jan-24 15:33N 44°24' E 008°54'6 5.9
2016-Jan-24 14:33N 44°19' E 008°58'1414.2
2016-Jan-24 13:33N 44°09' E 008°44'7513.8
2016-Jan-24 08:06N 43°20' E 007°26'22313.2
2016-Jan-23 15:17N 40°53' E 003°41'1014.1
2016-Jan-23 14:33N 40°45' E 003°31'1413.6
2016-Jan-23 13:33N 40°37' E 003°17'1413.8
2016-Jan-23 12:34N 40°28' E 003°03'1413.8
2016-Jan-23 11:33N 40°19' E 002°50'1414.0
2016-Jan-23 10:33N 40°09' E 002°36'1413.7
2016-Jan-23 09:33N 40°01' E 002°22'1413.9
2016-Jan-23 08:33N 39°51' E 002°09'  
Track history (hours):
 
Tides and Currents Weather Stations Pressure Air Temp Water Temp Dewpoint Dewpoint Depression Visibility Wind Speed Wind Dir Waves Ship Positions

Anjeliersgracht

Last reported at 2016-Feb-02 08:28 UTC. Time now 2016-Feb-12 03:44 UTC.
Position N 37°27' E 025°57'.
Warning: this ship's position is 9 days out of date.

Length 130 m; beam 19 m; draft 9 m.

Type: Cargo ship. MMSI: 244716000.

Date/timePositionNaut miles runAvg speedWind from/ knotsBaromVisibWave heightAir tempDewpointWater temp
2016-Feb-02 08:28N 37°27' E 025°57'1212.8
2016-Feb-02 07:33N 37°38' E 025°53'14413.0
2016-Feb-01 20:25N 40°01' E 026°09'  
2016-Jan-30 07:33N 40°00' E 026°09'49210.9
2016-Jan-28 10:16N 37°48' E 016°00'2413.4
2016-Jan-28 08:26N 38°02' E 015°35'2211.7
2016-Jan-28 06:31N 38°24' E 015°33'1413.6
2016-Jan-28 05:32N 38°34' E 015°21'11113.7
2016-Jan-27 21:24N 39°48' E 013°35'27514.6
2016-Jan-27 02:31N 43°11' E 009°26'1414.8
2016-Jan-27 01:34N 43°23' E 009°17'1514.8
2016-Jan-27 00:33N 43°36' E 009°06'1514.7
2016-Jan-26 23:33N 43°48' E 008°55'1514.7
2016-Jan-26 22:33N 44°01' E 008°45'1414.3
2016-Jan-26 21:33N 44°14' E 008°35'6 5.5
2016-Jan-26 20:25N 44°19' E 008°30'0 0.0
2016-Jan-26 17:17N 44°19' E 008°30'0 0.0
2016-Jan-26 14:19N 44°19' E 008°30'0 0.0
2016-Jan-26 09:16N 44°19' E 008°30'0 0.0
2016-Jan-26 07:22N 44°19' E 008°30'0 0.0
2016-Jan-26 06:25N 44°19' E 008°30'0 0.0
2016-Jan-26 05:31N 44°19' E 008°30'0 0.0
2016-Jan-26 04:25N 44°19' E 008°30'0 0.0
2016-Jan-26 03:25N 44°19' E 008°30'0 0.0
2016-Jan-26 02:25N 44°19' E 008°30'0 0.0
2016-Jan-26 01:25N 44°19' E 008°30'0 0.0
2016-Jan-26 00:13N 44°19' E 008°30'0 0.0
2016-Jan-25 23:25N 44°19' E 008°30'0 0.0
2016-Jan-25 21:25N 44°19' E 008°30'0 0.0
2016-Jan-25 19:25N 44°19' E 008°30'0 0.0
2016-Jan-25 18:33N 44°19' E 008°30'7 6.7
2016-Jan-25 17:33N 44°19' E 008°39'1313.3
2016-Jan-25 16:33N 44°21' E 008°58'5 4.3
2016-Jan-25 15:28N 44°24' E 008°53'0 0.0
2016-Jan-25 14:28N 44°24' E 008°53'0 0.0
2016-Jan-25 13:28N 44°24' E 008°53'0 0.0
2016-Jan-25 12:31N 44°24' E 008°53'0 0.0
2016-Jan-25 11:31N 44°24' E 008°53'0 0.0
2016-Jan-25 10:31N 44°24' E 008°53'0 0.0
2016-Jan-25 09:31N 44°24' E 008°53'0 0.0
2016-Jan-25 08:31N 44°24' E 008°53'0 0.0
2016-Jan-25 07:28N 44°24' E 008°53'0 0.0
2016-Jan-25 06:31N 44°24' E 008°53'0 0.0
2016-Jan-25 05:31N 44°24' E 008°53'0 0.0
2016-Jan-25 04:31N 44°24' E 008°53'0 0.0
2016-Jan-25 03:31N 44°24' E 008°53'0 0.0
2016-Jan-25 02:34N 44°24' E 008°53'0 0.0
2016-Jan-25 01:33N 44°24' E 008°53'0 0.0
2016-Jan-25 00:33N 44°24' E 008°53'0 0.0
2016-Jan-24 23:33N 44°24' E 008°53'0 0.0
2016-Jan-24 22:33N 44°24' E 008°53'0 0.0
2016-Jan-24 21:33N 44°24' E 008°53'0 0.0
2016-Jan-24 20:33N 44°24' E 008°53'0 0.0
2016-Jan-24 19:33N 44°24' E 008°53'0 0.0
2016-Jan-24 18:33N 44°24' E 008°53'0 0.0
2016-Jan-24 17:33N 44°24' E 008°53'0 0.0
2016-Jan-24 16:24N 44°24' E 008°53'0 0.5
2016-Jan-24 15:33N 44°24' E 008°54'6 5.9
2016-Jan-24 14:33N 44°19' E 008°58'1414.2
2016-Jan-24 13:33N 44°09' E 008°44'7513.8
2016-Jan-24 08:06N 43°20' E 007°26'22313.2
2016-Jan-23 15:17N 40°53' E 003°41'1014.1
2016-Jan-23 14:33N 40°45' E 003°31'1413.6
2016-Jan-23 13:33N 40°37' E 003°17'1413.8
2016-Jan-23 12:34N 40°28' E 003°03'1413.8
2016-Jan-23 11:33N 40°19' E 002°50'1414.0
2016-Jan-23 10:33N 40°09' E 002°36'1413.7
2016-Jan-23 09:33N 40°01' E 002°22'1413.9
2016-Jan-23 08:33N 39°51' E 002°09'  

Dump ship's entire track history